createdAt,value
2018-12-24T00:00:13.033Z,12.36
2018-12-24T00:01:13.723Z,12.44
2018-12-24T00:02:14.505Z,12.44
2018-12-24T00:03:15.469Z,12.4
2018-12-24T00:04:16.160Z,12.45
2018-12-24T00:05:17.401Z,12.4
2018-12-24T00:06:18.089Z,12.47
2018-12-24T00:07:18.500Z,12.55
2018-12-24T00:08:19.449Z,12.51
2018-12-24T00:09:20.413Z,12.57
2018-12-24T00:10:21.698Z,12.61
2018-12-24T00:11:22.204Z,12.53
2018-12-24T00:12:22.170Z,12.68
2018-12-24T00:13:22.580Z,12.65
2018-12-24T00:14:23.110Z,12.69
2018-12-24T00:15:23.527Z,12.61
2018-12-24T00:16:24.723Z,12.68
2018-12-24T00:17:25.422Z,12.65
2018-12-24T00:18:26.542Z,12.65
2018-12-24T00:19:27.231Z,12.75
2018-12-24T00:20:28.645Z,12.66
2018-12-24T00:21:30.056Z,12.62
2018-12-24T00:22:30.279Z,12.69
2018-12-24T00:23:31.688Z,12.7
2018-12-24T00:24:32.100Z,12.68
2018-12-24T00:25:32.068Z,12.66
2018-12-24T00:26:33.199Z,12.57
2018-12-24T00:27:34.168Z,12.57
2018-12-24T00:28:34.982Z,12.58
2018-12-24T00:29:35.118Z,12.63
2018-12-24T00:30:35.806Z,12.68
2018-12-24T00:31:37.146Z,12.63
2018-12-24T00:32:36.557Z,12.65
2018-12-24T00:33:37.241Z,12.69
2018-12-24T00:34:38.317Z,12.81
2018-12-24T00:35:39.282Z,12.65
2018-12-24T00:36:39.411Z,12.72
2018-12-24T00:37:40.098Z,12.76
2018-12-24T00:38:41.223Z,12.81
2018-12-24T00:39:42.635Z,12.81
2018-12-24T00:40:43.719Z,12.8
2018-12-24T00:41:44.681Z,12.8
2018-12-24T00:42:46.368Z,12.81
2018-12-24T00:43:46.500Z,12.8
2018-12-24T00:44:47.914Z,12.81
2018-12-24T00:45:48.049Z,12.81
2018-12-24T00:46:48.742Z,12.76
2018-12-24T00:47:49.709Z,12.76
2018-12-24T00:48:50.078Z,12.83
2018-12-24T00:49:51.041Z,12.81
2018-12-24T00:50:51.451Z,12.86
2018-12-24T00:51:52.193Z,12.72
2018-12-24T00:52:53.454Z,12.83
2018-12-24T00:53:53.942Z,12.8
2018-12-24T00:54:55.187Z,12.83
2018-12-24T00:55:55.876Z,12.76
2018-12-24T00:56:56.564Z,12.8
2018-12-24T00:57:57.347Z,12.8
2018-12-24T00:58:57.748Z,12.86
2018-12-24T00:59:58.162Z,12.83
2018-12-24T01:00:58.573Z,12.8
2018-12-24T01:01:59.987Z,12.78
2018-12-24T01:03:00.948Z,12.68
2018-12-24T01:04:02.203Z,12.65
2018-12-24T01:05:03.168Z,12.78
2018-12-24T01:06:03.689Z,12.65
2018-12-24T01:07:03.825Z,12.78
2018-12-24T01:08:04.956Z,12.65
2018-12-24T01:09:06.347Z,12.7
2018-12-24T01:10:07.074Z,12.8
2018-12-24T01:11:08.207Z,12.75
2018-12-24T01:12:08.895Z,12.75
2018-12-24T01:13:09.583Z,12.7
2018-12-24T01:14:09.994Z,12.7
2018-12-24T01:15:10.683Z,12.69
2018-12-24T01:16:12.096Z,12.69
2018-12-24T01:17:12.511Z,12.65
2018-12-24T01:18:14.126Z,12.73
2018-12-24T01:19:14.388Z,12.73
2018-12-24T01:20:15.529Z,12.69
2018-12-24T01:21:15.930Z,12.7
2018-12-24T01:22:16.619Z,12.75
2018-12-24T01:23:17.027Z,12.63
2018-12-24T01:24:30.676Z,12.72
2018-12-24T01:25:31.224Z,12.69
2018-12-24T01:26:32.361Z,12.68
2018-12-24T01:27:33.616Z,12.72
2018-12-24T01:28:34.586Z,12.63
2018-12-24T01:29:35.272Z,12.65
2018-12-24T01:30:35.958Z,12.58
2018-12-24T01:31:36.923Z,12.62
2018-12-24T01:32:37.443Z,12.62
2018-12-24T01:33:37.852Z,12.63
2018-12-24T01:34:38.259Z,12.62
2018-12-24T01:35:39.149Z,12.76
2018-12-24T01:36:39.837Z,12.66
2018-12-24T01:37:40.642Z,12.68
2018-12-24T01:38:41.436Z,12.68
2018-12-24T01:39:41.848Z,12.66
2018-12-24T01:40:42.540Z,12.75
2018-12-24T01:41:43.804Z,12.8
2018-12-24T01:42:44.211Z,12.69
2018-12-24T01:43:46.178Z,12.72
2018-12-24T01:44:46.420Z,12.63
2018-12-24T01:45:47.628Z,12.69
2018-12-24T01:46:48.316Z,12.72
2018-12-24T01:47:49.002Z,12.72
2018-12-24T01:48:49.691Z,12.76
2018-12-24T01:49:50.487Z,12.86
2018-12-24T01:50:51.175Z,12.8
2018-12-24T01:51:52.247Z,12.81
2018-12-24T01:52:52.379Z,12.81
2018-12-24T01:53:53.070Z,12.78
2018-12-24T01:54:54.040Z,12.81
2018-12-24T01:55:54.752Z,12.8
2018-12-24T01:56:55.718Z,12.78
2018-12-24T01:57:55.684Z,12.61
2018-12-24T01:58:56.372Z,12.66
2018-12-24T01:59:57.123Z,12.65
2018-12-24T02:00:58.645Z,12.61
2018-12-24T02:01:59.056Z,12.68
2018-12-24T02:02:59.764Z,12.63
2018-12-24T02:04:00.006Z,12.58
2018-12-24T02:05:00.284Z,12.48
2018-12-24T02:06:00.590Z,12.54
2018-12-24T02:07:01.401Z,12.51
2018-12-24T02:08:02.303Z,12.47
2018-12-24T02:09:02.439Z,12.44
2018-12-24T02:10:02.847Z,12.39
2018-12-24T02:11:04.190Z,12.37
2018-12-24T02:12:04.324Z,12.35
2018-12-24T02:13:05.346Z,12.37
2018-12-24T02:14:05.857Z,12.29
2018-12-24T02:15:05.990Z,12.29
2018-12-24T02:16:06.618Z,12.29
2018-12-24T02:17:07.316Z,12.39
2018-12-24T02:18:07.741Z,12.35
2018-12-24T02:19:09.158Z,12.4
2018-12-24T02:20:09.841Z,12.37
2018-12-24T02:21:11.533Z,12.39
2018-12-24T02:22:14.179Z,12.39
2018-12-24T02:23:14.308Z,12.36
2018-12-24T02:24:14.718Z,12.37
2018-12-24T02:25:15.129Z,12.28
2018-12-24T02:26:15.964Z,12.37
2018-12-24T02:27:16.650Z,12.32
2018-12-24T02:28:17.893Z,12.32
2018-12-24T02:29:18.857Z,12.36
2018-12-24T02:30:20.132Z,12.43
2018-12-24T02:31:21.122Z,12.28
2018-12-24T02:32:21.383Z,12.33
2018-12-24T02:33:22.953Z,12.39
2018-12-24T02:34:23.198Z,12.35
2018-12-24T02:35:24.305Z,12.39
2018-12-24T02:36:25.264Z,12.39
2018-12-24T02:37:25.959Z,12.37
2018-12-24T02:38:25.676Z,12.58
2018-12-24T02:39:26.642Z,12.63
2018-12-24T02:40:27.170Z,12.66
2018-12-24T02:41:27.858Z,12.65
2018-12-24T02:42:29.378Z,12.69
2018-12-24T02:43:29.984Z,12.7
2018-12-24T02:44:30.967Z,12.69
2018-12-24T02:45:31.483Z,12.68
2018-12-24T02:46:32.909Z,12.65
2018-12-24T02:47:34.431Z,12.69
2018-12-24T02:48:34.124Z,12.69
2018-12-24T02:49:34.385Z,12.68
2018-12-24T02:50:36.100Z,12.75
2018-12-24T02:51:36.405Z,12.8
2018-12-24T02:52:37.661Z,12.81
2018-12-24T02:53:38.468Z,12.78
2018-12-24T02:54:39.437Z,12.78
2018-12-24T02:55:40.450Z,12.66
2018-12-24T02:56:40.863Z,12.66
2018-12-24T02:57:41.826Z,12.69
2018-12-24T02:58:42.795Z,12.8
2018-12-24T02:59:43.523Z,12.83
2018-12-24T03:00:45.047Z,12.8
2018-12-24T03:01:45.301Z,12.9
2018-12-24T03:02:46.657Z,12.83
2018-12-24T03:03:46.904Z,12.81
2018-12-24T03:04:47.028Z,12.81
2018-12-24T03:05:47.993Z,12.73
2018-12-24T03:06:48.671Z,12.62
2018-12-24T03:07:49.635Z,12.62
2018-12-24T03:08:50.881Z,12.69
2018-12-24T03:09:51.693Z,12.68
2018-12-24T03:10:51.493Z,12.66
2018-12-24T03:11:52.460Z,12.61
2018-12-24T03:13:05.217Z,12.68
2018-12-24T03:14:05.891Z,12.69
2018-12-24T03:15:06.320Z,12.66
2018-12-24T03:16:07.296Z,12.63
2018-12-24T03:17:07.704Z,12.69
2018-12-24T03:18:08.791Z,12.68
2018-12-24T03:19:09.477Z,12.65
2018-12-24T03:20:09.749Z,12.61
2018-12-24T03:21:10.749Z,12.69
2018-12-24T03:22:10.792Z,12.66
2018-12-24T03:23:11.590Z,12.68
2018-12-24T03:24:12.247Z,12.63
2018-12-24T03:25:12.501Z,12.66
2018-12-24T03:26:13.470Z,12.65
2018-12-24T03:27:14.270Z,12.76
2018-12-24T03:28:14.969Z,12.66
2018-12-24T03:29:15.990Z,12.58
2018-12-24T03:30:16.553Z,12.54
2018-12-24T03:31:17.740Z,12.57
2018-12-24T03:32:19.487Z,12.47
2018-12-24T03:33:21.038Z,12.4
2018-12-24T03:34:21.577Z,12.35
2018-12-24T03:35:22.304Z,12.39
2018-12-24T03:36:23.115Z,12.37
2018-12-24T03:37:23.358Z,12.26
2018-12-24T03:38:24.625Z,12.18
2018-12-24T03:39:25.589Z,12.21
2018-12-24T03:40:27.110Z,12
2018-12-24T03:41:27.370Z,12.07
2018-12-24T03:42:27.888Z,12.08
2018-12-24T03:43:29.135Z,12.14
2018-12-24T03:44:30.637Z,12.07
2018-12-24T03:45:31.318Z,12.03
2018-12-24T03:46:31.848Z,11.95
2018-12-24T03:47:32.092Z,12
2018-12-24T03:48:33.337Z,11.99
2018-12-24T03:49:34.024Z,11.86
2018-12-24T03:50:34.544Z,11.85
2018-12-24T03:51:35.515Z,11.85
2018-12-24T03:52:36.754Z,11.86
2018-12-24T03:53:37.461Z,11.78
2018-12-24T03:54:38.717Z,11.85
2018-12-24T03:55:39.692Z,11.8
2018-12-24T03:56:40.671Z,11.88
2018-12-24T03:57:40.373Z,11.77
2018-12-24T03:58:41.623Z,11.78
2018-12-24T03:59:42.315Z,11.81
2018-12-24T04:00:43.288Z,11.8
2018-12-24T04:01:43.698Z,11.76
2018-12-24T04:02:44.981Z,11.77
2018-12-24T04:03:45.676Z,11.7
2018-12-24T04:04:46.338Z,11.71
2018-12-24T04:05:47.305Z,11.65
2018-12-24T04:06:48.272Z,11.7
2018-12-24T04:07:49.794Z,11.62
2018-12-24T04:08:49.759Z,11.67
2018-12-24T04:09:51.011Z,11.6
2018-12-24T04:10:51.995Z,11.53
2018-12-24T04:11:51.680Z,11.48
2018-12-24T04:12:52.371Z,11.41
2018-12-24T04:13:54.480Z,11.43
2018-12-24T04:14:54.885Z,11.53
2018-12-24T04:15:55.568Z,11.48
2018-12-24T04:16:56.376Z,11.59
2018-12-24T04:17:57.337Z,11.55
2018-12-24T04:18:58.304Z,11.53
2018-12-24T04:19:58.549Z,11.49
2018-12-24T04:20:58.960Z,11.6
2018-12-24T04:21:59.371Z,11.56
2018-12-24T04:23:00.163Z,11.63
2018-12-24T04:24:00.574Z,11.65
2018-12-24T04:25:01.275Z,11.67
2018-12-24T04:26:01.950Z,11.63
2018-12-24T04:27:02.910Z,11.67
2018-12-24T04:28:03.598Z,11.59
2018-12-24T04:29:04.564Z,11.56
2018-12-24T04:30:05.974Z,11.55
2018-12-24T04:31:06.671Z,11.58
2018-12-24T04:32:06.827Z,11.51
2018-12-24T04:33:07.805Z,11.34
2018-12-24T04:34:08.213Z,11.31
2018-12-24T04:35:09.182Z,10.98
2018-12-24T04:36:10.429Z,10.25
2018-12-24T04:37:10.837Z,9.27
2018-12-24T04:38:11.246Z,8.59
2018-12-24T04:39:12.221Z,8.08
2018-12-24T04:40:12.909Z,7.81
2018-12-24T04:41:14.432Z,7.53
2018-12-24T04:42:15.120Z,7.47
2018-12-24T04:43:15.806Z,7.48
2018-12-24T04:44:16.771Z,7.31
2018-12-24T04:45:16.984Z,7.23
2018-12-24T04:46:17.394Z,7.28
2018-12-24T04:47:18.360Z,7.26
2018-12-24T04:48:19.438Z,7.22
2018-12-24T04:49:19.847Z,7.21
2018-12-24T04:50:21.380Z,7.21
2018-12-24T04:51:21.632Z,7.13
2018-12-24T04:52:22.659Z,7.19
2018-12-24T04:53:23.356Z,7.13
2018-12-24T04:54:24.154Z,7.04
2018-12-24T04:55:24.262Z,7.05
2018-12-24T04:56:25.225Z,7.08
2018-12-24T04:57:25.631Z,7.21
2018-12-24T04:58:26.318Z,7.23
2018-12-24T04:59:27.291Z,7.1
2018-12-24T05:00:27.533Z,7.14
2018-12-24T05:01:28.008Z,7.03
2018-12-24T05:02:29.252Z,7.13
2018-12-24T05:03:29.936Z,7.13
2018-12-24T05:04:30.349Z,7.15
2018-12-24T05:05:30.777Z,7.05
2018-12-24T05:06:32.586Z,7.07
2018-12-24T05:07:33.130Z,6.96
2018-12-24T05:08:33.255Z,6.97
2018-12-24T05:09:34.661Z,6.89
2018-12-24T05:10:35.064Z,6.85
2018-12-24T05:11:35.749Z,6.82
2018-12-24T05:12:36.876Z,6.89
2018-12-24T05:13:42.184Z,6.85
2018-12-24T05:14:43.316Z,6.71
2018-12-24T05:15:44.681Z,6.77
2018-12-24T05:16:44.368Z,6.68
2018-12-24T05:17:44.986Z,6.71
2018-12-24T05:18:45.951Z,6.71
2018-12-24T05:19:46.663Z,6.67
2018-12-24T05:20:47.072Z,6.67
2018-12-24T05:21:47.848Z,6.64
2018-12-24T05:22:48.816Z,6.7
2018-12-24T05:23:48.946Z,6.56
2018-12-24T05:24:49.629Z,6.53
2018-12-24T05:25:50.274Z,6.7
2018-12-24T05:26:51.523Z,6.71
2018-12-24T05:27:52.239Z,6.56
2018-12-24T05:28:53.291Z,6.7
2018-12-24T05:29:53.424Z,6.56
2018-12-24T05:30:54.385Z,6.59
2018-12-24T05:31:54.794Z,6.6
2018-12-24T05:32:55.475Z,6.7
2018-12-24T05:33:55.446Z,6.56
2018-12-24T05:34:57.243Z,6.65
2018-12-24T05:35:57.773Z,6.65
2018-12-24T05:36:58.459Z,6.64
2018-12-24T05:37:59.144Z,6.64
2018-12-24T05:39:00.920Z,6.56
2018-12-24T05:40:01.600Z,6.44
2018-12-24T05:41:02.303Z,6.43
2018-12-24T05:42:03.714Z,6.54
2018-12-24T05:43:04.120Z,6.6
2018-12-24T05:44:04.529Z,6.64
2018-12-24T05:45:04.936Z,6.57
2018-12-24T05:46:05.745Z,6.59
2018-12-24T05:47:06.878Z,6.5
2018-12-24T05:48:08.005Z,6.34
2018-12-24T05:49:08.970Z,6.44
2018-12-24T05:50:09.098Z,6.39
2018-12-24T05:51:10.224Z,6.35
2018-12-24T05:52:10.442Z,6.38
2018-12-24T05:53:10.855Z,6.26
2018-12-24T05:54:11.538Z,6.28
2018-12-24T05:55:12.529Z,6.25
2018-12-24T05:56:13.345Z,6.31
2018-12-24T05:57:13.750Z,6.31
2018-12-24T05:58:14.875Z,6.35
2018-12-24T05:59:16.280Z,6.35
2018-12-24T06:00:16.965Z,6.28
2018-12-24T06:01:17.383Z,6.28
2018-12-24T06:02:18.510Z,6.15
2018-12-24T06:03:19.917Z,6.09
2018-12-24T06:04:23.136Z,6.12
2018-12-24T06:05:21.817Z,6.01
2018-12-24T06:06:22.079Z,6.06
2018-12-24T06:07:22.488Z,5.9
2018-12-24T06:08:23.171Z,5.79
2018-12-24T06:09:23.299Z,5.74
2018-12-24T06:10:24.258Z,5.72
2018-12-24T06:11:24.666Z,5.59
2018-12-24T06:12:25.628Z,5.61
2018-12-24T06:13:26.032Z,5.58
2018-12-24T06:14:26.718Z,5.54
2018-12-24T06:15:26.853Z,5.52
2018-12-24T06:16:27.352Z,5.51
2018-12-24T06:17:28.478Z,5.54
2018-12-24T06:18:29.161Z,5.54
2018-12-24T06:19:30.160Z,5.61
2018-12-24T06:20:38.808Z,5.37
2018-12-24T06:20:43.605Z,5.46
2018-12-24T06:21:44.688Z,5.23
2018-12-24T06:22:44.913Z,5.2
2018-12-24T06:23:45.042Z,5.1
2018-12-24T06:24:45.728Z,4.98
2018-12-24T06:25:45.964Z,5.01
2018-12-24T06:26:46.376Z,5.08
2018-12-24T06:27:46.780Z,5
2018-12-24T06:28:47.751Z,4.97
2018-12-24T06:29:49.155Z,5.02
2018-12-24T06:30:50.135Z,4.86
2018-12-24T06:31:50.688Z,4.82
2018-12-24T06:32:51.416Z,4.76
2018-12-24T06:33:52.540Z,4.75
2018-12-24T06:34:52.942Z,4.56
2018-12-24T06:35:54.347Z,4.61
2018-12-24T06:36:55.584Z,4.58
2018-12-24T06:37:55.995Z,4.56
2018-12-24T06:38:56.398Z,4.57
2018-12-24T06:39:56.801Z,4.49
2018-12-24T06:40:57.958Z,4.46
2018-12-24T06:41:58.766Z,4.58
2018-12-24T06:42:59.445Z,4.56
2018-12-24T06:44:11.895Z,4.46
2018-12-24T06:45:12.557Z,4.36
2018-12-24T06:46:12.964Z,4.39
2018-12-24T06:47:13.922Z,4.34
2018-12-24T06:48:14.330Z,4.42
2018-12-24T06:49:14.739Z,4.32
2018-12-24T06:50:17.087Z,4.28
2018-12-24T06:51:18.491Z,4.21
2018-12-24T06:52:18.995Z,4.1
2018-12-24T06:53:19.678Z,4.06
2018-12-24T06:54:21.082Z,3.95
2018-12-24T06:55:22.496Z,3.92
2018-12-24T06:56:22.744Z,3.82
2018-12-24T06:57:23.982Z,3.84
2018-12-24T06:58:24.488Z,3.71
2018-12-24T06:59:25.767Z,3.67
2018-12-24T07:00:25.734Z,3.55
2018-12-24T07:01:26.431Z,3.37
2018-12-24T07:02:27.563Z,3.31
2018-12-24T07:03:28.244Z,3.31
2018-12-24T07:04:28.927Z,3.34
2018-12-24T07:05:30.016Z,3.27
2018-12-24T07:06:30.701Z,3.3
2018-12-24T07:07:31.375Z,3.22
2018-12-24T07:08:31.779Z,3.15
2018-12-24T07:09:32.257Z,3.16
2018-12-24T07:10:36.689Z,3.21
2018-12-24T07:10:47.885Z,3.08
2018-12-24T07:10:57.414Z,3.12
2018-12-24T07:11:56.785Z,3.12
2018-12-24T07:12:57.910Z,3.08
2018-12-24T07:13:58.596Z,3.15
2018-12-24T07:14:59.285Z,3.22
2018-12-24T07:16:00.246Z,3.26
2018-12-24T07:17:00.650Z,3.29
2018-12-24T07:18:01.993Z,3.22
2018-12-24T07:19:01.960Z,3.12
2018-12-24T07:20:02.366Z,3.27
2018-12-24T07:21:03.334Z,3.31
2018-12-24T07:22:03.611Z,3.09
2018-12-24T07:23:04.016Z,3.05
2018-12-24T07:24:05.146Z,3.08
2018-12-24T07:25:06.275Z,3.05
2018-12-24T07:26:09.044Z,3.12
2018-12-24T07:27:08.091Z,3.13
2018-12-24T07:28:09.053Z,3.11
2018-12-24T07:29:09.457Z,3.12
2018-12-24T07:30:10.141Z,3.08
2018-12-24T07:31:10.102Z,3.22
2018-12-24T07:32:11.479Z,3.26
2018-12-24T07:33:11.887Z,3.21
2018-12-24T07:34:13.402Z,3.22
2018-12-24T07:35:14.364Z,3.16
2018-12-24T07:36:14.605Z,3.16
2018-12-24T07:37:14.289Z,3.27
2018-12-24T07:38:14.974Z,3.19
2018-12-24T07:39:15.376Z,3.3
2018-12-24T07:40:16.504Z,3.34
2018-12-24T07:41:16.683Z,3.37
2018-12-24T07:42:18.144Z,3.29
2018-12-24T07:43:18.547Z,3.24
2018-12-24T07:44:25.716Z,3.43
2018-12-24T07:44:30.790Z,3.3
2018-12-24T07:45:30.906Z,3.27
2018-12-24T07:46:31.589Z,3.52
2018-12-24T07:47:31.992Z,3.4
2018-12-24T07:48:33.033Z,3.37
2018-12-24T07:49:33.744Z,3.49
2018-12-24T07:50:34.431Z,3.5
2018-12-24T07:51:34.839Z,3.43
2018-12-24T07:52:37.695Z,3.52
2018-12-24T07:53:38.193Z,3.53
2018-12-24T07:54:42.147Z,3.64
2018-12-24T07:54:53.977Z,3.5
2018-12-24T07:55:06.409Z,3.52
2018-12-24T07:55:18.903Z,3.55
2018-12-24T07:55:31.192Z,3.49
2018-12-24T07:55:43.616Z,3.58
2018-12-24T07:55:53.118Z,3.59
2018-12-24T07:56:52.011Z,3.58
2018-12-24T07:57:55.752Z,3.61
2018-12-24T07:58:54.885Z,3.7
2018-12-24T07:59:56.124Z,3.7
2018-12-24T08:00:56.250Z,3.7
2018-12-24T08:01:57.212Z,3.78
2018-12-24T08:02:57.897Z,3.7
2018-12-24T08:03:59.020Z,3.78
2018-12-24T08:04:59.705Z,3.81
2018-12-24T08:06:00.492Z,3.85
2018-12-24T08:07:01.594Z,3.71
2018-12-24T08:08:01.998Z,3.85
2018-12-24T08:09:02.401Z,3.71
2018-12-24T08:10:03.810Z,3.89
2018-12-24T08:11:05.161Z,3.81
2018-12-24T08:12:05.736Z,3.82
2018-12-24T08:13:05.980Z,3.89
2018-12-24T08:14:06.974Z,3.86
2018-12-24T08:15:08.497Z,3.85
2018-12-24T08:16:08.181Z,3.92
2018-12-24T08:17:08.713Z,3.81
2018-12-24T08:18:09.424Z,3.94
2018-12-24T08:19:09.667Z,3.89
2018-12-24T08:20:10.632Z,3.92
2018-12-24T08:21:11.039Z,3.95
2018-12-24T08:22:12.168Z,3.94
2018-12-24T08:23:12.857Z,3.99
2018-12-24T08:24:13.638Z,3.99
2018-12-24T08:25:13.885Z,4
2018-12-24T08:26:14.016Z,4.06
2018-12-24T08:27:15.378Z,4.1
2018-12-24T08:28:16.162Z,4.12
2018-12-24T08:29:16.574Z,4.02
2018-12-24T08:30:17.256Z,4.03
2018-12-24T08:31:17.945Z,4.06
2018-12-24T08:32:19.184Z,3.99
2018-12-24T08:33:19.588Z,4
2018-12-24T08:34:20.550Z,4.02
2018-12-24T08:35:21.512Z,4.02
2018-12-24T08:36:22.919Z,3.99
2018-12-24T08:37:22.953Z,3.88
2018-12-24T08:38:23.638Z,4
2018-12-24T08:39:25.052Z,3.94
2018-12-24T08:40:25.469Z,3.94
2018-12-24T08:41:28.996Z,4.02
2018-12-24T08:42:27.863Z,3.96
2018-12-24T08:43:28.546Z,4.04
2018-12-24T08:44:29.787Z,3.96
2018-12-24T08:45:29.197Z,3.95
2018-12-24T08:46:29.885Z,3.99
2018-12-24T08:47:30.697Z,3.92
2018-12-24T08:48:32.946Z,3.96
2018-12-24T08:49:32.909Z,3.95
2018-12-24T08:50:33.324Z,3.89
2018-12-24T08:51:34.332Z,3.82
2018-12-24T08:52:34.740Z,3.88
2018-12-24T08:53:35.148Z,3.73
2018-12-24T08:54:35.557Z,3.76
2018-12-24T08:55:36.966Z,3.74
2018-12-24T08:56:37.376Z,3.82
2018-12-24T08:57:38.751Z,3.84
2018-12-24T08:58:39.441Z,3.74
2018-12-24T08:59:39.573Z,3.74
2018-12-24T09:00:40.706Z,3.88
2018-12-24T09:01:42.388Z,3.76
2018-12-24T09:02:42.632Z,3.82
2018-12-24T09:03:43.320Z,3.85
2018-12-24T09:04:44.283Z,3.84
2018-12-24T09:05:44.407Z,3.99
2018-12-24T09:06:45.386Z,3.88
2018-12-24T09:07:46.075Z,3.92
2018-12-24T09:08:47.324Z,3.92
2018-12-24T09:09:51.767Z,4.02
2018-12-24T09:10:51.152Z,4.07
2018-12-24T09:11:51.322Z,4.1
2018-12-24T09:12:51.730Z,4.13
2018-12-24T09:13:52.416Z,4.1
2018-12-24T09:14:53.545Z,4.14
2018-12-24T09:15:56.136Z,4.16
2018-12-24T09:16:55.299Z,4.16
2018-12-24T09:17:55.552Z,4.18
2018-12-24T09:18:56.793Z,4.18
2018-12-24T09:19:56.932Z,4.14
2018-12-24T09:20:58.062Z,4.2
2018-12-24T09:21:59.306Z,4.28
2018-12-24T09:22:59.713Z,4.3
2018-12-24T09:24:00.120Z,4.34
2018-12-24T09:25:00.251Z,4.45
2018-12-24T09:26:00.775Z,4.39
2018-12-24T09:27:02.012Z,4.39
2018-12-24T09:28:03.128Z,4.48
2018-12-24T09:29:04.260Z,4.48
2018-12-24T09:30:05.011Z,4.5
2018-12-24T09:31:05.142Z,4.56
2018-12-24T09:32:06.568Z,4.53
2018-12-24T09:33:07.252Z,4.56
2018-12-24T09:34:08.216Z,4.58
2018-12-24T09:35:08.904Z,4.6
2018-12-24T09:36:09.906Z,4.52
2018-12-24T09:37:11.036Z,4.53
2018-12-24T09:38:11.897Z,4.58
2018-12-24T09:39:13.242Z,4.43
2018-12-24T09:40:13.654Z,4.24
2018-12-24T09:41:14.064Z,4.27
2018-12-24T09:42:19.400Z,4.18
2018-12-24T09:42:27.100Z,4.16
2018-12-24T09:43:27.669Z,4.24
2018-12-24T09:44:29.648Z,4.21
2018-12-24T09:45:29.781Z,4.21
2018-12-24T09:46:31.469Z,4.27
2018-12-24T09:47:31.877Z,4.27
2018-12-24T09:48:32.120Z,4.28
2018-12-24T09:49:32.808Z,4.27
2018-12-24T09:50:33.491Z,4.3
2018-12-24T09:51:33.457Z,4.24
2018-12-24T09:52:33.872Z,4.28
2018-12-24T09:53:34.978Z,4.34
2018-12-24T09:54:35.665Z,4.34
2018-12-24T09:55:36.349Z,4.31
2018-12-24T09:56:36.757Z,4.27
2018-12-24T09:57:37.190Z,4.32
2018-12-24T09:58:37.724Z,4.32
2018-12-24T09:59:38.517Z,4.32
2018-12-24T10:00:38.926Z,4.27
2018-12-24T10:01:39.333Z,4.28
2018-12-24T10:02:39.740Z,4.27
2018-12-24T10:03:40.570Z,4.32
2018-12-24T10:04:40.705Z,4.48
2018-12-24T10:05:42.419Z,4.48
2018-12-24T10:06:42.830Z,4.56
2018-12-24T10:07:43.963Z,4.48
2018-12-24T10:08:44.654Z,4.56
2018-12-24T10:09:45.345Z,4.56
2018-12-24T10:10:45.755Z,4.48
2018-12-24T10:11:47.389Z,4.56
2018-12-24T10:12:46.654Z,4.57
2018-12-24T10:13:47.511Z,4.57
2018-12-24T10:14:48.920Z,4.56
2018-12-24T10:15:50.086Z,4.56
2018-12-24T10:16:50.309Z,4.57
2018-12-24T10:17:51.690Z,4.49
2018-12-24T10:18:52.655Z,4.52
2018-12-24T10:19:53.347Z,4.52
2018-12-24T10:20:54.592Z,4.48
2018-12-24T10:21:55.292Z,4.5
2018-12-24T10:22:56.330Z,4.34
2018-12-24T10:23:58.030Z,4.38
2018-12-24T10:24:58.280Z,4.45
2018-12-24T10:25:59.427Z,4.42
2018-12-24T10:26:59.767Z,4.46
2018-12-24T10:28:01.315Z,4.48
2018-12-24T10:29:02.064Z,4.46
2018-12-24T10:30:02.657Z,4.52
2018-12-24T10:31:03.587Z,4.5
2018-12-24T10:32:03.603Z,4.58
2018-12-24T10:33:03.852Z,4.6
2018-12-24T10:34:04.670Z,4.49
2018-12-24T10:35:05.809Z,4.61
2018-12-24T10:36:06.500Z,4.56
2018-12-24T10:37:07.467Z,4.63
2018-12-24T10:38:08.166Z,4.66
2018-12-24T10:39:09.302Z,4.66
2018-12-24T10:40:09.780Z,4.66
2018-12-24T10:41:10.915Z,4.63
2018-12-24T10:42:12.754Z,4.56
2018-12-24T10:43:14.253Z,4.58
2018-12-24T10:44:13.276Z,4.43
2018-12-24T10:45:18.063Z,4.52
2018-12-24T10:46:19.192Z,4.56
2018-12-24T10:47:20.601Z,4.5
2018-12-24T10:48:21.566Z,4.43
2018-12-24T10:49:22.529Z,4.5
2018-12-24T10:50:23.220Z,4.4
2018-12-24T10:51:23.625Z,4.4
2018-12-24T10:52:24.586Z,4.38
2018-12-24T10:53:25.552Z,4.42
2018-12-24T10:54:26.198Z,4.32
2018-12-24T10:55:26.700Z,4.52
2018-12-24T10:56:28.110Z,4.45
2018-12-24T10:57:28.286Z,4.53
2018-12-24T10:58:28.994Z,4.43
2018-12-24T10:59:29.449Z,4.48
2018-12-24T11:00:30.852Z,4.48
2018-12-24T11:01:31.537Z,4.43
2018-12-24T11:02:31.952Z,4.57
2018-12-24T11:03:32.645Z,4.63
2018-12-24T11:04:32.859Z,4.7
2018-12-24T11:05:33.826Z,4.63
2018-12-24T11:06:33.556Z,4.76
2018-12-24T11:07:34.689Z,4.68
2018-12-24T11:08:39.331Z,4.71
2018-12-24T11:08:50.519Z,4.82
2018-12-24T11:09:47.826Z,4.86
2018-12-24T11:10:48.246Z,4.84
2018-12-24T11:11:49.210Z,4.82
2018-12-24T11:12:52.705Z,4.86
2018-12-24T11:13:51.155Z,4.86
2018-12-24T11:14:52.311Z,4.82
2018-12-24T11:15:52.724Z,4.87
2018-12-24T11:16:57.973Z,4.82
2018-12-24T11:17:09.143Z,4.82
2018-12-24T11:18:09.395Z,4.89
2018-12-24T11:19:08.858Z,4.87
2018-12-24T11:20:08.992Z,4.83
2018-12-24T11:21:09.677Z,4.79
2018-12-24T11:22:10.920Z,4.78
2018-12-24T11:23:11.052Z,4.84
2018-12-24T11:24:12.465Z,4.86
2018-12-24T11:25:12.928Z,4.79
2018-12-24T11:26:13.611Z,4.84
2018-12-24T11:27:14.089Z,4.83
2018-12-24T11:28:15.065Z,4.82
2018-12-24T11:29:16.952Z,4.79
2018-12-24T11:30:17.230Z,4.83
2018-12-24T11:31:17.744Z,4.87
2018-12-24T11:32:18.709Z,4.92
2018-12-24T11:33:18.841Z,4.86
2018-12-24T11:34:19.814Z,4.82
2018-12-24T11:35:19.947Z,4.79
2018-12-24T11:36:20.910Z,4.79
2018-12-24T11:37:21.876Z,4.7
2018-12-24T11:38:23.232Z,4.71
2018-12-24T11:39:24.856Z,4.79
2018-12-24T11:40:26.785Z,4.87
2018-12-24T11:41:26.513Z,4.83
2018-12-24T11:42:29.498Z,4.83
2018-12-24T11:42:42.350Z,4.75
2018-12-24T11:43:41.001Z,4.86
2018-12-24T11:44:42.445Z,4.79
2018-12-24T11:45:42.873Z,4.89
2018-12-24T11:46:44.559Z,4.87
2018-12-24T11:47:44.691Z,4.92
2018-12-24T11:48:47.477Z,4.87
2018-12-24T11:49:47.507Z,4.86
2018-12-24T11:50:47.477Z,4.9
2018-12-24T11:51:47.891Z,4.83
2018-12-24T11:52:48.577Z,4.87
2018-12-24T11:53:49.873Z,4.86
2018-12-24T11:54:54.289Z,4.78
2018-12-24T11:55:54.540Z,4.9
2018-12-24T11:56:52.441Z,4.98
2018-12-24T11:57:54.132Z,4.94
2018-12-24T11:58:54.542Z,4.98
2018-12-24T11:59:54.676Z,4.84
2018-12-24T12:00:55.813Z,4.89
2018-12-24T12:01:56.317Z,4.97
2018-12-24T12:02:56.728Z,5
2018-12-24T12:03:57.540Z,5.01
2018-12-24T12:04:58.231Z,5.05
2018-12-24T12:05:58.199Z,5.07
2018-12-24T12:06:58.892Z,5.07
2018-12-24T12:07:59.025Z,5.05
2018-12-24T12:08:59.434Z,5
2018-12-24T12:10:00.127Z,4.97
2018-12-24T12:11:02.880Z,4.79
2018-12-24T12:12:04.122Z,4.84
2018-12-24T12:13:05.982Z,4.87
2018-12-24T12:13:16.603Z,4.82
2018-12-24T12:14:17.416Z,4.79
2018-12-24T12:15:18.103Z,4.82
2018-12-24T12:16:19.409Z,4.86
2018-12-24T12:17:20.380Z,5
2018-12-24T12:18:20.797Z,5.08
2018-12-24T12:19:21.206Z,5.05
2018-12-24T12:20:27.571Z,5.12
2018-12-24T12:20:37.516Z,5.18
2018-12-24T12:20:54.003Z,5.18
2018-12-24T12:21:04.515Z,5.18
2018-12-24T12:21:16.204Z,5.15
2018-12-24T12:21:29.435Z,5.15
2018-12-24T12:21:38.863Z,5.23
2018-12-24T12:22:42.825Z,5.25
2018-12-24T12:22:52.279Z,5.2
2018-12-24T12:23:53.874Z,5.28
2018-12-24T12:24:53.853Z,5.34
2018-12-24T12:25:54.264Z,5.31
2018-12-24T12:26:55.773Z,5.37
2018-12-24T12:27:56.183Z,5.36
2018-12-24T12:28:57.593Z,5.38
2018-12-24T12:29:57.726Z,5.34
2018-12-24T12:30:58.858Z,5.38
2018-12-24T12:31:59.548Z,5.4
2018-12-24T12:32:59.959Z,5.31
2018-12-24T12:34:00.441Z,5.37
2018-12-24T12:35:01.324Z,5.37
2018-12-24T12:36:01.737Z,5.36
2018-12-24T12:37:02.703Z,5.34
2018-12-24T12:38:03.672Z,5.29
2018-12-24T12:39:03.809Z,5.29
2018-12-24T12:40:04.216Z,5.33
2018-12-24T12:41:04.902Z,5.37
2018-12-24T12:42:05.354Z,5.38
2018-12-24T12:43:06.130Z,5.46
2018-12-24T12:44:10.040Z,5.51
2018-12-24T12:44:19.063Z,5.47
2018-12-24T12:45:18.440Z,5.38
2018-12-24T12:46:19.017Z,5.41
2018-12-24T12:47:19.429Z,5.43
2018-12-24T12:48:21.878Z,5.37
2018-12-24T12:49:20.292Z,5.37
2018-12-24T12:50:21.425Z,5.47
2018-12-24T12:51:21.835Z,5.43
2018-12-24T12:52:22.528Z,5.43
2018-12-24T12:53:23.661Z,5.34
2018-12-24T12:54:24.626Z,5.36
2018-12-24T12:55:25.547Z,5.29
2018-12-24T12:56:25.972Z,5.41
2018-12-24T12:57:27.107Z,5.34
2018-12-24T12:58:27.525Z,5.25
2018-12-24T12:59:27.941Z,5.29
2018-12-24T13:00:28.955Z,5.23
2018-12-24T13:01:29.850Z,5.23
2018-12-24T13:02:30.249Z,5.18
2018-12-24T13:03:30.938Z,5.18
2018-12-24T13:04:31.348Z,5.22